Time;durP1;ratioP1;P1;durP2;ratioP2;P2;SDS_P1;SDS_P2;PMS_P1;PMS_P2;Temp;Humidity;BMP_temperature;BMP_pressure;BME280_temperature;BME280_humidity;BME280_pressure;Samples;Min_cycle;Max_cycle;Signal;HPM_P1;HPM_P2
2022/12/30 00:00:23;;;;;;;2.77;2.10;;;16.40;62.10;17.50;100246.00;;;;5010316;28;20699;-47
2022/12/30 00:02:49;;;;;;;2.10;1.83;;;16.40;62.00;17.50;100262.00;;;;5010547;28;20674;-47
2022/12/30 00:05:15;;;;;;;3.17;2.30;;;16.40;62.10;17.40;100281.00;;;;5010963;28;20246;-48
2022/12/30 00:07:41;;;;;;;2.63;2.07;;;16.40;62.10;17.40;100341.00;;;;5010987;28;20176;-47
2022/12/30 00:10:07;;;;;;;3.20;2.00;;;16.30;61.90;17.40;100354.00;;;;5010751;28;20178;-47
2022/12/30 00:35:04;;;;;;;3.70;2.10;;;16.20;62.10;17.30;100354.00;;;;4997338;28;20224;-47
2022/12/30 00:37:30;;;;;;;2.47;1.97;;;16.20;62.10;17.20;100349.00;;;;4962343;28;20219;-46
2022/12/30 00:39:55;;;;;;;2.20;1.90;;;16.20;62.10;17.20;100367.00;;;;5000544;28;20172;-47
2022/12/30 00:45:06;;;;;;;2.70;1.97;;;16.20;62.10;17.20;100370.00;;;;4997095;28;20267;-47
2022/12/30 00:47:33;;;;;;;1.93;1.70;;;16.20;62.10;17.20;100366.00;;;;4990644;28;20556;-47
2022/12/30 00:58:12;;;;;;;2.27;1.90;;;16.10;62.10;17.20;100356.00;;;;4990818;28;20163;-47
2022/12/30 01:00:38;;;;;;;2.70;2.00;;;16.10;62.10;17.20;100365.00;;;;4990409;28;20376;-47
2022/12/30 01:03:04;;;;;;;2.47;1.80;;;16.10;62.30;17.20;100377.00;;;;4991265;28;20201;-47
2022/12/30 01:05:29;;;;;;;2.10;1.90;;;16.10;62.20;17.10;100374.00;;;;4990006;28;20521;-47
2022/12/30 01:07:55;;;;;;;2.23;1.87;;;16.10;62.30;17.20;100379.00;;;;4990297;28;20182;-47
2022/12/30 01:10:21;;;;;;;2.90;1.77;;;16.10;62.60;17.10;100299.00;;;;4989693;28;20235;-46
2022/12/30 01:12:46;;;;;;;2.20;1.80;;;16.00;62.20;17.10;100379.00;;;;4989790;28;20224;-47
2022/12/30 01:15:12;;;;;;;2.60;1.90;;;16.10;62.40;17.10;100386.00;;;;4989744;28;20739;-47
2022/12/30 01:17:38;;;;;;;2.53;2.00;;;16.00;62.20;17.10;100376.00;;;;4990316;28;20251;-48
2022/12/30 01:20:05;;;;;;;2.73;1.90;;;16.00;62.30;17.10;100381.00;;;;5015479;28;20688;-48
2022/12/30 01:22:31;;;;;;;2.10;1.83;;;16.00;62.70;17.10;100384.00;;;;4996133;28;20196;-47
2022/12/30 01:24:57;;;;;;;2.00;1.80;;;16.00;62.50;17.10;100379.00;;;;5021611;28;20187;-47
2022/12/30 01:27:22;;;;;;;2.33;1.63;;;16.00;62.70;17.10;100375.00;;;;4993993;28;20181;-47
2022/12/30 01:29:48;;;;;;;3.70;1.73;;;16.00;62.80;17.10;100384.00;;;;4978979;28;20871;-46
2022/12/30 01:32:16;;;;;;;2.37;1.97;;;16.00;62.80;17.10;100311.00;;;;4994217;28;20175;-47
2022/12/30 01:34:42;;;;;;;2.63;1.90;;;16.00;62.70;17.10;100394.00;;;;4977208;28;20253;-47
2022/12/30 01:37:09;;;;;;;1.67;1.57;;;16.00;62.70;17.10;100403.00;;;;4992987;28;20220;-47
2022/12/30 01:39:34;;;;;;;1.93;1.53;;;15.90;62.60;17.10;100394.00;;;;4992897;28;20175;-47
2022/12/30 01:42:00;;;;;;;2.60;1.90;;;15.90;62.60;17.10;100394.00;;;;4992353;28;20179;-46
2022/12/30 01:44:44;;;;;;;2.40;1.90;;;15.90;62.50;17.10;100393.00;;;;4993287;28;20199;-46
2022/12/30 01:47:12;;;;;;;1.93;1.73;;;15.90;62.50;17.10;100325.00;;;;5008551;28;20180;-46
2022/12/30 01:49:39;;;;;;;2.00;1.80;;;15.90;62.60;17.00;100331.00;;;;4992708;28;20215;-47
2022/12/30 01:52:05;;;;;;;2.87;1.73;;;15.90;62.60;17.00;100317.00;;;;5008489;28;20187;-46
2022/12/30 01:54:31;;;;;;;2.20;1.80;;;15.80;62.50;17.00;100394.00;;;;5009046;28;20283;-47
2022/12/30 01:56:57;;;;;;;2.80;2.00;;;15.90;62.60;17.00;100319.00;;;;4992375;28;20291;-47
2022/12/30 01:59:26;;;;;;;2.43;2.00;;;15.90;62.50;17.00;100398.00;;;;4992461;28;20292;-47
2022/12/30 02:01:51;;;;;;;2.83;1.97;;;15.80;62.60;17.00;100308.00;;;;5008782;28;20199;-46
2022/12/30 02:04:20;;;;;;;2.80;1.80;;;15.80;62.60;17.00;100315.00;;;;4992707;28;20665;-47
2022/12/30 02:07:16;;;;;;;2.13;1.70;;;15.80;62.70;17.00;100319.00;;;;5008552;28;20286;-46
2022/12/30 02:09:42;;;;;;;1.80;1.70;;;15.80;62.60;17.00;100409.00;;;;5009082;28;20239;-47
2022/12/30 02:12:08;;;;;;;1.90;1.67;;;15.80;63.40;16.90;100415.00;;;;5009788;28;20700;-46
2022/12/30 02:14:36;;;;;;;1.90;1.70;;;15.80;62.60;16.90;100330.00;;;;5008482;28;20183;-46
2022/12/30 02:17:38;;;;;;;2.50;1.77;;;15.80;62.70;16.90;100420.00;;;;5008678;28;20180;-46
2022/12/30 02:20:32;;;;;;;1.87;1.67;;;15.80;62.70;16.90;100402.00;;;;5008907;28;20221;-46
2022/12/30 02:23:17;;;;;;;1.87;1.70;;;15.70;62.60;16.90;100379.00;;;;5017685;28;20204;-46
2022/12/30 02:26:21;;;;;;;1.90;1.60;;;15.70;62.60;16.90;100396.00;;;;5008662;28;20215;-47
2022/12/30 02:29:28;;;;;;;2.27;1.80;;;15.70;62.60;16.80;100392.00;;;;4995878;28;20213;-47
2022/12/30 02:32:11;;;;;;;1.90;1.70;;;15.70;62.60;16.80;100301.00;;;;4991536;28;20186;-46
2022/12/30 02:34:45;;;;;;;2.40;1.60;;;15.70;62.60;16.80;100388.00;;;;4992912;28;20517;-47
2022/12/30 02:37:39;;;;;;;1.80;1.60;;;15.70;62.70;16.80;100392.00;;;;4992783;28;20195;-47
2022/12/30 02:40:22;;;;;;;2.40;1.70;;;15.70;62.70;16.80;100398.00;;;;4977797;28;20167;-47
2022/12/30 02:45:50;;;;;;;1.60;1.50;;;15.70;62.90;16.80;100408.00;;;;4995837;28;20158;-46
2022/12/30 02:48:25;;;;;;;2.13;1.70;;;15.60;62.70;16.80;100418.00;;;;4972470;28;20255;-47
2022/12/30 02:53:37;;;;;;;1.97;1.77;;;15.60;62.70;16.70;100408.00;;;;4995889;28;20238;-47
2022/12/30 02:56:04;;;;;;;2.27;1.70;;;15.60;62.80;16.80;100335.00;;;;4995254;28;20208;-47
2022/12/30 02:58:32;;;;;;;1.53;1.43;;;15.60;62.90;16.70;100418.00;;;;4988507;28;20199;-47
2022/12/30 03:04:28;;;;;;;1.57;1.43;;;15.60;62.80;16.50;100401.00;;;;4988439;28;20203;-47
2022/12/30 03:07:21;;;;;;;3.47;1.80;;;15.60;62.90;16.70;100378.00;;;;4989248;28;20172;-45
2022/12/30 03:13:03;;;;;;;1.90;1.40;;;15.50;62.80;16.70;100401.00;;;;4989237;28;20307;-47
2022/12/30 03:16:06;;;;;;;1.67;1.57;;;15.50;62.80;16.70;100392.00;;;;4988055;28;20206;-46
2022/12/30 03:18:32;;;;;;;2.63;1.90;;;15.50;62.80;16.60;100399.00;;;;4989185;28;20179;-47
2022/12/30 03:20:58;;;;;;;2.53;1.53;;;15.50;62.80;16.60;100393.00;;;;4988016;28;20550;-47
2022/12/30 03:28:52;;;;;;;1.87;1.77;;;15.50;62.80;16.60;100408.00;;;;4988273;28;20195;-47
2022/12/30 03:31:18;;;;;;;2.27;1.60;;;15.50;62.80;16.60;100312.00;;;;5004482;28;20685;-47
2022/12/30 03:33:44;;;;;;;2.03;1.80;;;15.50;62.80;16.60;100400.00;;;;4973851;28;20689;-46
2022/12/30 03:36:13;;;;;;;1.93;1.70;;;15.50;62.80;16.60;100289.00;;;;4992228;28;20200;-46
2022/12/30 03:38:41;;;;;;;2.20;1.67;;;15.40;62.80;16.60;100383.00;;;;4992653;28;20587;-46
2022/12/30 03:41:07;;;;;;;2.00;1.57;;;15.40;62.80;16.60;100386.00;;;;4991853;28;20172;-47
2022/12/30 03:43:33;;;;;;;1.90;1.70;;;15.40;62.80;16.60;100393.00;;;;5008368;28;20200;-47
2022/12/30 03:45:58;;;;;;;4.03;1.70;;;15.50;62.90;16.60;100387.00;;;;4991323;28;20660;-46
2022/12/30 03:48:24;;;;;;;2.30;1.87;;;15.40;62.80;16.60;100385.00;;;;4995078;28;20183;-46
2022/12/30 03:50:50;;;;;;;1.73;1.47;;;15.40;62.80;16.60;100380.00;;;;5010892;28;20261;-46
2022/12/30 03:53:15;;;;;;;2.30;1.70;;;15.40;62.80;16.50;100392.00;;;;5011170;28;20195;-48
2022/12/30 03:55:41;;;;;;;1.87;1.73;;;15.30;62.80;16.50;100390.00;;;;5010794;28;20203;-47
2022/12/30 03:58:07;;;;;;;1.70;1.60;;;15.40;62.80;16.50;100385.00;;;;4995250;28;20180;-46
2022/12/30 04:00:33;;;;;;;2.10;1.70;;;15.30;62.80;16.50;100361.00;;;;5011280;28;20584;-47
2022/12/30 04:02:58;;;;;;;2.47;1.70;;;15.40;62.90;16.50;100364.00;;;;5010885;28;20191;-47
2022/12/30 04:05:24;;;;;;;1.60;1.50;;;15.30;62.80;16.20;100377.00;;;;4994392;28;20211;-45
2022/12/30 04:07:50;;;;;;;1.83;1.70;;;15.40;62.80;16.50;100372.00;;;;4999620;28;20212;-48
2022/12/30 04:10:15;;;;;;;1.70;1.60;;;15.30;62.70;16.50;100381.00;;;;5015964;28;20202;-46
2022/12/30 04:12:41;;;;;;;1.60;1.50;;;15.30;62.80;16.50;100282.00;;;;5010778;28;20222;-50
2022/12/30 04:15:07;;;;;;;1.97;1.70;;;15.30;62.80;16.50;100296.00;;;;5012112;28;20561;-47
2022/12/30 04:17:33;;;;;;;2.17;1.67;;;15.30;62.80;16.40;100372.00;;;;5012440;28;20191;-47
2022/12/30 04:19:59;;;;;;;2.20;1.60;;;15.30;62.70;16.40;100379.00;;;;4994670;28;20187;-47
2022/12/30 04:22:24;;;;;;;2.53;1.70;;;15.30;62.80;16.40;100374.00;;;;4993958;28;20569;-47
2022/12/30 04:24:50;;;;;;;2.77;1.60;;;15.30;62.80;16.40;100370.00;;;;5012557;28;20517;-47
2022/12/30 04:27:16;;;;;;;2.20;1.60;;;15.20;62.70;16.40;100379.00;;;;5010465;28;20172;-47
2022/12/30 04:29:42;;;;;;;7.30;2.00;;;15.30;63.60;16.40;100362.00;;;;5007702;28;20183;-47
2022/12/30 04:32:07;;;;;;;4.90;2.00;;;15.30;63.50;16.30;100287.00;;;;5010369;28;20176;-47
2022/12/30 04:34:33;;;;;;;4.40;1.70;;;15.30;63.60;16.30;100359.00;;;;4994344;28;20235;-47
2022/12/30 04:36:59;;;;;;;4.60;1.70;;;15.30;63.20;16.20;100361.00;;;;5011837;28;20772;-47
2022/12/30 04:39:24;;;;;;;2.20;1.80;;;15.30;63.20;16.30;100362.00;;;;5011148;28;20672;-47
2022/12/30 04:41:50;;;;;;;3.23;1.60;;;15.20;62.90;16.30;100250.00;;;;5010182;28;20180;-48
2022/12/30 04:44:16;;;;;;;2.93;1.77;;;15.20;62.90;16.30;100207.00;;;;4986516;28;20207;-47
2022/12/30 04:46:42;;;;;;;6.33;1.90;;;15.20;62.80;16.30;100362.00;;;;5010495;28;20191;-47
2022/12/30 04:49:08;;;;;;;5.23;1.90;;;15.20;62.80;16.30;100362.00;;;;4975197;28;20188;-46
2022/12/30 04:51:34;;;;;;;2.47;1.90;;;15.20;62.80;16.30;100362.00;;;;4974374;28;20235;-47
2022/12/30 04:53:59;;;;;;;2.90;1.93;;;15.10;62.70;16.30;100290.00;;;;4992066;28;20204;-47
2022/12/30 04:56:25;;;;;;;2.83;2.07;;;15.20;62.80;16.30;100379.00;;;;4975038;28;20209;-46
2022/12/30 04:58:51;;;;;;;1.80;1.57;;;15.10;62.50;16.30;100375.00;;;;4990733;28;20186;-47
2022/12/30 05:01:16;;;;;;;3.67;1.83;;;15.10;62.40;16.20;100299.00;;;;4991061;28;20180;-48
2022/12/30 05:03:42;;;;;;;4.10;1.87;;;15.10;62.40;16.20;100374.00;;;;4974892;28;20231;-46
2022/12/30 05:06:08;;;;;;;3.07;2.10;;;15.10;62.30;16.20;100385.00;;;;4974953;28;20180;-46
2022/12/30 05:08:33;;;;;;;3.37;1.80;;;15.10;62.30;16.20;100386.00;;;;4990813;28;20207;-46
2022/12/30 05:10:59;;;;;;;2.97;2.03;;;15.10;62.20;16.20;100403.00;;;;4992292;28;20588;-46
2022/12/30 05:13:25;;;;;;;4.67;2.17;;;15.10;62.20;16.20;100402.00;;;;4973876;28;20704;-47
2022/12/30 05:15:51;;;;;;;3.63;1.90;;;15.00;62.20;16.20;100311.00;;;;4958423;28;20223;-47
2022/12/30 05:18:16;;;;;;;1.97;1.63;;;15.10;62.20;16.20;100394.00;;;;4990291;28;20180;-47
2022/12/30 05:20:42;;;;;;;2.57;1.87;;;15.10;62.10;16.20;100407.00;;;;4991144;28;20164;-46
2022/12/30 05:26:13;;;;;;;5.17;2.17;;;15.00;61.90;16.10;100404.00;;;;4990485;28;20192;-46
2022/12/30 05:28:38;;;;;;;3.33;1.93;;;15.00;61.90;16.10;100399.00;;;;4995968;28;20264;-46
2022/12/30 05:31:04;;;;;;;4.87;1.80;;;15.00;62.00;16.10;100392.00;;;;5010186;28;20270;-47
2022/12/30 05:33:29;;;;;;;3.00;2.00;;;15.00;62.10;16.10;100311.00;;;;5011217;28;20234;-47
2022/12/30 05:35:55;;;;;;;5.03;2.00;;;15.00;62.00;16.10;100365.00;;;;4993445;28;20208;-46
2022/12/30 05:38:21;;;;;;;3.90;1.83;;;14.90;61.80;16.10;100396.00;;;;4994082;28;20179;-47
2022/12/30 05:40:47;;;;;;;4.27;1.80;;;15.00;61.90;16.10;100290.00;;;;4977224;28;20179;-48
2022/12/30 05:43:12;;;;;;;6.87;2.00;;;14.90;61.80;16.10;100399.00;;;;4993225;28;20191;-47
2022/12/30 05:45:38;;;;;;;5.17;1.80;;;15.00;61.90;16.10;100389.00;;;;4977183;28;20558;-51
2022/12/30 05:48:04;;;;;;;8.80;2.00;;;14.90;62.00;16.00;100397.00;;;;4993777;28;20183;-47
2022/12/30 05:50:30;;;;;;;7.37;2.37;;;14.90;62.10;16.00;100304.00;;;;5008468;28;20168;-47
2022/12/30 05:52:55;;;;;;;5.37;2.37;;;14.90;61.90;16.10;100401.00;;;;5006438;28;20227;-45
2022/12/30 05:55:21;;;;;;;7.53;2.47;;;15.00;62.20;16.00;100394.00;;;;5009200;28;20684;-46
2022/12/30 05:57:47;;;;;;;9.03;2.30;;;14.90;62.20;16.00;100311.00;;;;5008414;28;20695;-47
2022/12/30 06:00:13;;;;;;;8.77;2.57;;;14.90;62.30;16.00;100378.00;;;;4992229;28;20170;-47
2022/12/30 06:02:39;;;;;;;8.03;2.80;;;14.90;62.40;16.00;100383.00;;;;4976428;28;20231;-46
2022/12/30 06:05:05;;;;;;;5.57;2.43;;;14.90;62.70;16.00;100376.00;;;;4992615;28;20861;-49
2022/12/30 06:07:31;;;;;;;7.50;2.53;;;14.90;62.60;16.00;100378.00;;;;4992908;28;20179;-47
2022/12/30 06:09:57;;;;;;;6.00;2.40;;;14.90;62.50;16.00;100373.00;;;;5009254;28;20197;-48
2022/12/30 06:12:23;;;;;;;7.93;2.50;;;14.90;62.40;16.00;100376.00;;;;5015999;28;20274;-48
2022/12/30 06:14:48;;;;;;;8.13;2.47;;;14.90;62.40;16.00;100365.00;;;;5008749;28;20245;-48
2022/12/30 06:17:14;;;;;;;5.77;2.37;;;14.80;62.10;15.90;100382.00;;;;4992367;28;20187;-48
2022/12/30 06:19:40;;;;;;;5.63;2.40;;;14.80;62.10;15.90;100367.00;;;;5009140;28;20187;-45
2022/12/30 06:22:05;;;;;;;5.47;2.67;;;14.80;62.10;15.70;100356.00;;;;5008361;28;20543;-47
2022/12/30 06:24:31;;;;;;;6.17;2.37;;;14.80;61.90;15.90;100363.00;;;;5005041;28;20177;-46
2022/12/30 06:26:57;;;;;;;7.83;2.60;;;14.80;61.90;15.90;100356.00;;;;4989130;28;20180;-47
2022/12/30 06:29:23;;;;;;;5.00;2.00;;;14.80;61.80;15.90;100345.00;;;;4973241;28;20582;-46
2022/12/30 06:31:48;;;;;;;7.93;2.40;;;14.80;61.80;15.90;100335.00;;;;4989519;28;20646;-47
2022/12/30 06:34:14;;;;;;;4.67;2.30;;;14.80;61.80;15.90;100338.00;;;;4988689;28;20220;-46
2022/12/30 06:36:40;;;;;;;5.93;2.40;;;14.70;61.60;15.80;100249.00;;;;4988830;28;20220;-46
2022/12/30 06:39:05;;;;;;;4.13;2.23;;;14.70;61.50;15.80;100335.00;;;;4988873;28;20199;-47
2022/12/30 06:41:31;;;;;;;4.43;2.13;;;14.80;61.60;15.80;100271.00;;;;4988824;28;20172;-46
2022/12/30 06:43:57;;;;;;;5.77;2.43;;;14.70;61.40;15.80;100342.00;;;;4988377;28;20199;-47
2022/12/30 06:46:22;;;;;;;6.47;2.37;;;14.70;61.30;15.80;100350.00;;;;4988496;28;20184;-47
2022/12/30 06:48:48;;;;;;;4.33;2.23;;;14.70;61.30;15.80;100335.00;;;;5003753;28;20183;-47
2022/12/30 06:51:14;;;;;;;4.40;2.27;;;14.70;61.20;15.80;100341.00;;;;5006968;28;20206;-47
2022/12/30 06:53:40;;;;;;;5.43;2.20;;;14.70;61.20;15.80;100254.00;;;;5009040;28;20561;-46
2022/12/30 06:56:06;;;;;;;4.40;2.10;;;14.70;61.20;15.70;100345.00;;;;5008180;28;20204;-47
2022/12/30 06:58:32;;;;;;;4.67;2.40;;;14.70;61.10;15.70;100338.00;;;;4991901;28;20172;-47
2022/12/30 07:00:58;;;;;;;4.77;2.40;;;14.70;61.20;15.70;100325.00;;;;5009038;28;20183;-46
2022/12/30 07:03:24;;;;;;;3.30;2.20;;;14.60;60.80;15.70;100333.00;;;;4992561;28;20221;-47
2022/12/30 07:05:50;;;;;;;3.30;2.07;;;14.70;60.90;15.70;100316.00;;;;4994769;28;20664;-47
2022/12/30 07:08:15;;;;;;;3.30;1.87;;;14.60;60.80;15.70;100242.00;;;;5034767;28;20656;-46
2022/12/30 07:10:42;;;;;;;3.23;1.90;;;14.60;60.80;15.70;100218.00;;;;5034572;28;20178;-46
2022/12/30 07:13:08;;;;;;;3.93;2.10;;;14.60;60.90;15.70;100216.00;;;;5031106;28;20286;-46
2022/12/30 07:15:33;;;;;;;3.67;2.33;;;14.60;60.80;15.70;100296.00;;;;5027803;28;20203;-46
2022/12/30 07:17:59;;;;;;;3.73;1.97;;;14.60;60.80;15.70;100288.00;;;;5029518;28;20183;-48
2022/12/30 07:20:25;;;;;;;3.50;1.90;;;14.60;60.70;15.60;100301.00;;;;5011225;28;20209;-47
2022/12/30 07:22:51;;;;;;;2.37;1.90;;;14.50;60.60;15.60;100297.00;;;;5011302;28;20203;-47
2022/12/30 07:25:16;;;;;;;3.27;2.00;;;14.60;60.60;15.60;100303.00;;;;5017677;28;20230;-47
2022/12/30 07:27:42;;;;;;;4.27;2.13;;;14.50;60.40;15.60;100199.00;;;;5006743;28;20176;-46
2022/12/30 07:30:08;;;;;;;2.73;1.93;;;14.60;60.50;15.60;100205.00;;;;4975378;28;20179;-48
2022/12/30 07:32:34;;;;;;;4.53;2.10;;;14.50;60.40;15.60;100294.00;;;;4975263;28;20204;-46
2022/12/30 07:35:01;;;;;;;3.03;1.90;;;14.50;60.40;15.60;100302.00;;;;4991213;28;20187;-47
2022/12/30 07:37:27;;;;;;;3.87;2.07;;;14.50;60.40;15.60;100310.00;;;;4991891;28;20171;-47
2022/12/30 07:39:52;;;;;;;3.93;1.90;;;14.50;60.20;15.50;100315.00;;;;4991793;28;20176;-47
2022/12/30 07:42:18;;;;;;;2.97;2.00;;;14.50;60.30;15.50;100326.00;;;;4990495;28;20650;-47
2022/12/30 07:44:44;;;;;;;3.27;2.10;;;14.50;60.20;15.50;100307.00;;;;4991444;28;20558;-46
2022/12/30 07:47:09;;;;;;;2.97;1.80;;;14.40;60.00;15.50;100297.00;;;;4975502;28;20645;-46
2022/12/30 07:49:35;;;;;;;2.87;2.00;;;14.50;60.10;15.50;100296.00;;;;5007951;28;20734;-48
2022/12/30 07:52:01;;;;;;;2.33;1.90;;;14.50;60.10;15.50;100274.00;;;;5007859;28;20214;-47
2022/12/30 07:54:27;;;;;;;4.00;2.00;;;14.40;60.00;15.50;100215.00;;;;4991039;28;20646;-46
2022/12/30 07:56:52;;;;;;;2.77;1.80;;;14.40;59.90;15.50;100189.00;;;;5007788;28;20207;-47
2022/12/30 07:59:18;;;;;;;3.40;1.90;;;14.40;59.90;15.50;100199.00;;;;4991973;28;20175;-47
2022/12/30 08:01:44;;;;;;;2.53;1.93;;;14.40;59.80;15.50;100208.00;;;;4991761;28;20175;-46
2022/12/30 08:04:09;;;;;;;2.90;1.83;;;14.40;59.90;15.40;100200.00;;;;5007682;28;20196;-45
2022/12/30 08:06:36;;;;;;;3.43;2.00;;;14.30;59.90;15.40;100287.00;;;;5008247;28;20180;-47
2022/12/30 08:09:05;;;;;;;3.63;2.00;;;14.40;59.80;15.40;100281.00;;;;5008110;28;20195;-46
2022/12/30 08:11:31;;;;;;;2.23;1.87;;;14.30;59.80;15.40;100239.00;;;;5010347;28;20184;-47
2022/12/30 08:13:57;;;;;;;3.93;2.07;;;14.30;59.80;15.40;100272.00;;;;4992347;28;20200;-47
2022/12/30 08:16:22;;;;;;;2.80;1.90;;;14.30;59.70;15.40;100264.00;;;;4989089;28;20878;-47
2022/12/30 08:18:48;;;;;;;3.50;1.93;;;14.30;59.70;15.40;100266.00;;;;4989038;28;20180;-47
2022/12/30 08:21:15;;;;;;;4.70;2.20;;;14.30;59.70;15.40;100266.00;;;;4998716;28;20251;-46
2022/12/30 08:23:45;;;;;;;3.37;1.97;;;14.30;59.70;15.40;100193.00;;;;5010885;28;20191;-47
2022/12/30 08:26:20;;;;;;;3.30;2.20;;;14.30;59.60;15.30;100240.00;;;;5009908;28;20291;-47
2022/12/30 08:28:46;;;;;;;3.33;2.00;;;14.30;59.80;15.30;100236.00;;;;4994677;28;20839;-46
2022/12/30 08:31:21;;;;;;;5.53;2.20;;;14.30;59.90;15.30;100237.00;;;;5010573;28;20179;-46
2022/12/30 08:33:47;;;;;;;2.83;2.00;;;14.30;59.90;15.30;100245.00;;;;4994604;28;20194;-46
2022/12/30 08:36:15;;;;;;;4.00;1.80;;;14.40;59.90;15.30;100137.00;;;;4993835;28;20195;-47
2022/12/30 08:38:43;;;;;;;2.27;1.80;;;14.50;59.80;15.40;100151.00;;;;4994737;28;20182;-47
2022/12/30 08:41:11;;;;;;;4.33;2.00;;;14.70;59.80;15.40;100225.00;;;;4994487;28;20330;-46
2022/12/30 08:43:37;;;;;;;3.27;2.07;;;14.70;59.70;15.50;100223.00;;;;5010756;28;20198;-46
2022/12/30 08:46:03;;;;;;;3.00;1.70;;;14.90;59.60;15.50;100226.00;;;;5009371;28;20209;-46
2022/12/30 08:48:30;;;;;;;2.13;1.67;;;15.00;59.50;15.60;100213.00;;;;5001404;28;20204;-46
2022/12/30 08:50:55;;;;;;;2.50;1.80;;;15.10;59.30;15.70;100203.00;;;;4991426;28;20180;-47
2022/12/30 08:53:21;;;;;;;2.40;1.73;;;15.30;59.20;15.80;100203.00;;;;4990595;28;20223;-47
2022/12/30 08:55:47;;;;;;;2.10;1.70;;;15.40;59.20;15.90;100180.00;;;;4990499;28;20262;-47
2022/12/30 08:58:13;;;;;;;1.83;1.63;;;15.60;59.60;16.00;100169.00;;;;4990643;28;20196;-47
2022/12/30 09:00:38;;;;;;;2.30;1.80;;;15.70;58.90;16.10;100180.00;;;;4990108;28;20634;-46
2022/12/30 09:03:04;;;;;;;3.10;1.80;;;15.90;58.80;16.20;100167.00;;;;4990026;28;20204;-48
2022/12/30 09:05:32;;;;;;;1.73;1.60;;;16.00;58.70;16.30;100174.00;;;;4989994;28;20256;-47
2022/12/30 09:07:58;;;;;;;2.17;1.90;;;16.20;58.70;16.50;100084.00;;;;4990589;28;20165;-47
2022/12/30 09:10:24;;;;;;;3.37;1.90;;;16.40;58.60;16.60;100081.00;;;;4990198;28;20676;-46
2022/12/30 09:12:50;;;;;;;1.83;1.70;;;16.40;58.50;16.70;100083.00;;;;4989543;28;20215;-47
2022/12/30 09:15:15;;;;;;;1.90;1.70;;;16.50;58.50;16.60;100175.00;;;;4992866;28;20222;-47
2022/12/30 09:17:41;;;;;;;3.00;1.70;;;16.70;58.40;16.90;100094.00;;;;4973494;28;20235;-46
2022/12/30 09:20:08;;;;;;;5.03;2.00;;;16.80;59.00;17.00;100081.00;;;;4975795;28;20176;-47
2022/12/30 09:22:33;;;;;;;4.97;1.80;;;16.90;59.20;17.10;100151.00;;;;4990329;28;20204;-45
2022/12/30 09:25:01;;;;;;;4.43;1.70;;;17.00;59.20;17.20;100084.00;;;;5008835;28;20183;-48
2022/12/30 09:27:27;;;;;;;3.93;1.93;;;17.00;59.00;17.30;100147.00;;;;5030151;28;20167;-46
2022/12/30 09:29:53;;;;;;;2.80;1.80;;;17.20;59.10;17.40;100147.00;;;;5012875;28;20631;-47
2022/12/30 09:32:19;;;;;;;3.37;1.87;;;17.20;58.90;17.50;100142.00;;;;5030716;28;20380;-46
2022/12/30 09:34:45;;;;;;;4.23;1.90;;;17.40;59.00;17.50;100148.00;;;;5029572;28;20198;-47
2022/12/30 09:37:10;;;;;;;5.87;1.80;;;17.40;59.20;17.60;100147.00;;;;5028915;28;20203;-47
2022/12/30 09:39:36;;;;;;;2.00;1.60;;;17.50;59.40;17.70;100147.00;;;;5030748;28;20624;-47
2022/12/30 09:45:45;;;;;;;2.37;1.67;;;17.60;59.30;17.80;100141.00;;;;5010968;28;20176;-47
2022/12/30 09:48:21;;;;;;;2.97;1.67;;;17.50;59.20;17.80;100142.00;;;;4992437;28;20227;-47
2022/12/30 09:51:01;;;;;;;2.73;1.90;;;17.50;59.30;17.90;99995.00;;;;4974002;28;20186;-47
2022/12/30 09:54:04;;;;;;;3.93;1.97;;;17.50;59.30;17.80;100118.00;;;;4990398;28;20256;-46
2022/12/30 09:56:35;;;;;;;3.07;2.10;;;17.40;59.30;17.80;100026.00;;;;4990594;28;20337;-47
2022/12/30 09:59:24;;;;;;;2.97;2.07;;;17.40;59.40;17.80;100088.00;;;;4990681;28;20172;-46
2022/12/30 10:01:58;;;;;;;2.27;1.80;;;17.40;59.50;17.80;100085.00;;;;4996685;28;20655;-47
2022/12/30 10:04:24;;;;;;;2.40;2.00;;;17.30;59.50;17.80;100008.00;;;;4979914;28;20200;-45
2022/12/30 10:07:12;;;;;;;3.57;2.10;;;17.20;59.70;17.80;100064.00;;;;4974231;28;20191;-47
2022/12/30 10:09:55;;;;;;;4.47;1.97;;;17.10;59.90;17.80;100062.00;;;;5003402;28;20251;-46
2022/12/30 10:12:46;;;;;;;2.03;1.80;;;17.10;60.00;17.80;100057.00;;;;4974320;28;20174;-46
2022/12/30 10:15:18;;;;;;;2.40;1.90;;;17.10;59.90;17.70;99968.00;;;;4991276;28;20199;-46
2022/12/30 10:18:03;;;;;;;2.10;1.87;;;17.10;59.90;17.70;100055.00;;;;4994765;28;20214;-46
2022/12/30 10:20:56;;;;;;;2.67;2.10;;;17.00;59.80;17.70;99976.00;;;;4992828;28;20195;-46
2022/12/30 10:23:34;;;;;;;4.73;2.00;;;17.00;59.90;17.70;100042.00;;;;5003279;28;20204;-47
2022/12/30 10:26:19;;;;;;;3.60;1.80;;;17.00;59.80;17.70;100032.00;;;;4999747;28;20234;-46
2022/12/30 10:29:03;;;;;;;3.37;1.90;;;16.90;59.80;17.70;100028.00;;;;4997899;28;20201;-47
2022/12/30 10:31:32;;;;;;;2.07;1.80;;;16.90;60.00;17.60;100018.00;;;;4990724;28;20371;-46
2022/12/30 10:34:18;;;;;;;3.73;2.00;;;16.90;60.00;17.60;100032.00;;;;4998053;28;20207;-46
2022/12/30 10:37:05;;;;;;;2.17;1.80;;;16.90;59.90;17.60;99938.00;;;;5001418;28;20286;-47
2022/12/30 10:39:35;;;;;;;2.33;1.80;;;16.80;59.90;17.60;100043.00;;;;5010026;28;20194;-47
2022/12/30 10:42:30;;;;;;;2.80;1.90;;;16.80;59.90;17.60;100023.00;;;;4991993;28;20179;-46
2022/12/30 10:45:18;;;;;;;2.93;2.17;;;16.70;59.80;17.50;100009.00;;;;5009204;28;20166;-46
2022/12/30 10:48:02;;;;;;;4.00;2.17;;;16.70;59.80;17.50;100006.00;;;;5010299;28;20258;-46
2022/12/30 10:50:35;;;;;;;2.63;1.93;;;16.70;59.80;17.50;99921.00;;;;5008002;28;20172;-47
2022/12/30 10:53:02;;;;;;;2.10;1.80;;;16.70;59.80;17.50;100000.00;;;;5008179;28;20203;-46
2022/12/30 10:55:32;;;;;;;2.03;1.70;;;16.60;59.70;17.40;99986.00;;;;5008546;28;20556;-45
2022/12/30 10:58:04;;;;;;;3.20;1.93;;;16.60;59.70;17.40;99974.00;;;;4992396;28;20176;-46
2022/12/30 11:00:32;;;;;;;2.00;1.60;;;16.60;59.70;17.40;99983.00;;;;5008314;28;20269;-47
2022/12/30 11:03:03;;;;;;;2.37;1.90;;;16.60;59.80;17.40;99967.00;;;;5008202;28;20221;-45
2022/12/30 11:05:32;;;;;;;2.50;1.90;;;16.60;59.80;17.40;99963.00;;;;4992698;28;20740;-45
2022/12/30 11:07:59;;;;;;;3.67;1.90;;;16.50;59.70;17.30;99883.00;;;;5008789;28;20259;-46
2022/12/30 11:10:24;;;;;;;3.07;1.93;;;16.50;59.70;17.30;99947.00;;;;4992326;28;20718;-44
2022/12/30 11:15:53;;;;;;;2.47;1.90;;;16.50;59.80;17.30;99963.00;;;;5008685;28;20257;-46
2022/12/30 11:18:18;;;;;;;3.23;1.83;;;16.50;59.90;17.30;99950.00;;;;5008549;28;20660;-46
2022/12/30 11:20:46;;;;;;;2.83;1.80;;;16.50;59.90;16.90;99937.00;;;;5020659;28;20211;-46
2022/12/30 11:23:33;;;;;;;2.50;1.90;;;16.50;59.90;17.30;99858.00;;;;4992161;28;21025;-46
2022/12/30 11:26:00;;;;;;;3.47;1.90;;;16.40;60.00;17.30;99925.00;;;;4985783;28;20848;-47
2022/12/30 11:28:48;;;;;;;2.67;1.80;;;16.40;60.10;17.30;99851.00;;;;4948681;28;20195;-46
2022/12/30 11:31:14;;;;;;;7.63;1.87;;;16.40;60.10;17.20;99913.00;;;;4993088;28;20164;-46
2022/12/30 11:33:52;;;;;;;7.17;1.90;;;16.50;60.40;17.20;99830.00;;;;4988442;28;20611;-46
2022/12/30 11:36:26;;;;;;;4.10;2.07;;;16.40;60.60;17.20;99891.00;;;;4994261;28;20198;-47
2022/12/30 11:38:52;;;;;;;4.43;1.70;;;16.50;60.70;17.30;99794.00;;;;4999455;28;20169;-47
2022/12/30 11:41:17;;;;;;;7.97;2.17;;;16.60;60.50;17.30;99830.00;;;;4979539;28;20188;-47
2022/12/30 11:43:44;;;;;;;3.50;1.90;;;16.80;60.50;17.40;99826.00;;;;5000286;28;20195;-47
2022/12/30 11:46:12;;;;;;;5.10;1.90;;;16.90;60.30;17.50;99817.00;;;;5008354;28;20203;-46
2022/12/30 11:48:44;;;;;;;4.97;2.10;;;17.10;60.20;17.60;99886.00;;;;5009204;28;20248;-46
2022/12/30 11:51:27;;;;;;;9.63;2.17;;;17.10;59.90;17.70;99877.00;;;;5010470;28;20639;-48
2022/12/30 11:54:27;;;;;;;6.10;1.90;;;17.30;59.70;17.80;99862.00;;;;5007460;28;20309;-48
2022/12/30 11:57:19;;;;;;;2.87;1.87;;;17.40;59.60;17.90;99765.00;;;;4987873;28;20699;-48